Columbus, OH

9:31 AM EST on February 11, 2016 (GMT -0500)
WX8Q Worthington Estates East | | Change Station
CLOSE
Current Station
Personal Weather Station
Location: Worthington, OH
Elevation: 922 ft
Nearby Weather Stations
Active Advisory: Special Statement

Elev 922 ft 40.10 °N, 83.01 °W | Updated 22 seconds ago

Overcast
Overcast
14.5 °F
Feels Like 14 °F
N
1.6
Wind Variable Wind from SW
Gusts 2.2 mph

Today
High -- | Low -- °F
--% Chance of Precip.
Yesterday
High -- | Low -- °F
Precip. -- in
Pressure 30.26 in
Visibility 10.0 miles
Clouds Overcast 5500 ft
Windchill 14 °F
Dew Point 2 °F
Humidity 58%
Rainfall 0.00 in
Snow Depth Not available.
7:30 AM 6:02 PM
Waxing Crescent, 12% visible
METAR KOSU 111353Z 28006KT 10SM OVC055 M11/M14 A3021 RMK AO2 SLP247 T11111144
Pressure 30.26 in
Visibility 10.0 miles
Clouds Overcast 5500 ft
Windchill 14 °F
Dew Point 2 °F
Humidity 58%
Rainfall 0.00 in
Snow Depth Not available.
7:30 AM 6:02 PM
Waxing Crescent, 12% visible
METAR KOSU 111353Z 28006KT 10SM OVC055 M11/M14 A3021 RMK AO2 SLP247 T11111144

10-Day Weather Forecast

Almanac

Astronomy

Feb. 11, 2016 Rise Set
Actual Time
Civil Twilight
Nautical Twilight
Astronomical Twilight
Moon
Length of Visible Light
Length of Day
Tomorrow will be .
, % of the Moon is Illuminated

Today's Extremes

State Highs State Lows

Community

WunderPhotos

Upload Photos

1,892,054 photos uploaded!

WunderBlog® & News

Nearby

Air Quality

  Air Quality AQ Index Pollutant
Not available.

Snow Depth

Station Depth Elevation

Earthquake Activity

City Distance Mag. Time & Date
Minimum magnitude displayed is 2.5.

Coastal Water Temperatures

Place Temperature

Stations

Nearby Weather Stations

Station Location Temp. Windchill Dew Point Humidity Wind Precip. Elev Updated Type
                   

Watches & Warnings

Special Statement
Issued: 3:55 AM EST Feb. 11, 2016 – National Weather Service

... Cold wind chill readings this morning...

Temperatures this morning have dipped into the single digits at
many locations. This combined with west winds of 5 to 10 mph will
result in wind chill readings in the zero to 10 below range
through mid morning.

Be prepared for the cold temperatures this morning and bundle up
if headed outdoors.